createdAt,value
2023-05-12T05:03:35.470Z,691.00
2023-05-12T05:04:36.369Z,691.00
2023-05-12T05:05:36.407Z,691.00
2023-05-12T05:06:35.440Z,691.00
2023-05-12T05:07:36.459Z,691.00
2023-05-12T05:08:36.445Z,691.00
2023-05-12T05:09:36.610Z,690.00
2023-05-12T05:10:36.555Z,693.00
2023-05-12T05:11:35.600Z,692.00
2023-05-12T05:12:36.649Z,693.00
2023-05-12T05:13:36.711Z,693.00
2023-05-12T05:14:35.768Z,694.00
2023-05-12T05:15:35.814Z,694.00
2023-05-12T05:16:35.833Z,692.00
2023-05-12T05:17:36.931Z,691.00
2023-05-12T05:18:36.961Z,692.00
2023-05-12T05:19:50.949Z,692.00
2023-05-12T05:21:35.958Z,694.00
2023-05-12T05:22:36.962Z,693.00
2023-05-12T05:23:36.947Z,695.00
2023-05-12T05:24:35.951Z,693.00
2023-05-12T05:25:36.929Z,697.00
2023-05-12T05:26:36.922Z,694.00
2023-05-12T05:27:36.928Z,693.00
2023-05-12T05:28:35.921Z,691.00
2023-05-12T05:29:35.900Z,690.00
2023-05-12T05:30:36.900Z,693.00
2023-05-12T05:31:36.951Z,695.00
2023-05-12T05:32:36.014Z,703.00
2023-05-12T05:33:37.034Z,715.00
2023-05-12T05:34:36.129Z,734.00
2023-05-12T05:35:36.228Z,813.00
2023-05-12T05:36:36.106Z,843.00
2023-05-12T05:37:36.134Z,856.00
2023-05-12T05:38:36.161Z,867.00
2023-05-12T05:39:36.168Z,904.00
2023-05-12T05:40:45.365Z,919.00
2023-05-12T05:41:37.159Z,984.00
2023-05-12T05:42:36.165Z,1012.00
2023-05-12T05:43:36.134Z,1028.00
2023-05-12T05:44:37.138Z,1044.00
2023-05-12T05:45:37.129Z,1084.00
2023-05-12T05:46:37.165Z,1105.00
2023-05-12T05:47:37.142Z,1159.00
2023-05-12T05:48:37.104Z,1193.00
2023-05-12T05:49:37.098Z,1212.00
2023-05-12T05:50:36.088Z,1235.00
2023-05-12T05:51:37.105Z,1249.00
2023-05-12T05:52:36.080Z,1263.00
2023-05-12T05:53:37.071Z,1321.00
2023-05-12T05:54:36.077Z,1335.00
2023-05-12T05:55:37.097Z,1356.00
2023-05-12T05:56:36.131Z,1396.00
2023-05-12T05:57:37.118Z,1482.00
2023-05-12T05:58:36.103Z,1498.00
2023-05-12T05:59:36.129Z,1551.00
2023-05-12T06:00:36.135Z,1580.00
2023-05-12T06:01:37.227Z,1588.00
2023-05-12T06:02:37.253Z,1615.00
2023-05-12T06:03:36.246Z,1647.00
2023-05-12T06:04:36.150Z,1722.00
2023-05-12T06:05:36.164Z,1781.00
2023-05-12T06:06:37.207Z,1815.00
2023-05-12T06:07:36.216Z,1841.00
2023-05-12T06:08:37.200Z,1868.00
2023-05-12T06:09:36.239Z,1924.00
2023-05-12T06:10:37.249Z,1941.00
2023-05-12T06:11:37.323Z,1957.00
2023-05-12T06:12:37.369Z,1976.00
2023-05-12T06:13:37.435Z,2026.00
2023-05-12T06:14:37.483Z,2049.00
2023-05-12T06:15:37.547Z,2075.00
2023-05-12T06:16:37.656Z,2125.00
2023-05-12T06:17:36.684Z,2141.00
2023-05-12T06:18:36.742Z,2176.00
2023-05-12T06:19:37.767Z,2194.00
2023-05-12T06:20:37.797Z,2209.00
2023-05-12T06:21:36.819Z,2246.00
2023-05-12T06:22:37.871Z,2264.00
2023-05-12T06:23:36.972Z,2288.00
2023-05-12T06:24:37.915Z,2350.00
2023-05-12T06:25:36.971Z,2378.00
2023-05-12T06:26:36.988Z,2390.00
2023-05-12T06:27:38.014Z,2442.00
2023-05-12T06:28:37.035Z,2442.00
2023-05-12T06:29:38.055Z,2469.00
2023-05-12T06:30:38.141Z,2516.00
2023-05-12T06:31:38.174Z,2569.00
2023-05-12T06:32:38.131Z,2610.00
2023-05-12T06:33:38.157Z,2624.00
2023-05-12T06:34:37.158Z,2637.00
2023-05-12T06:35:38.203Z,2652.00
2023-05-12T06:36:37.202Z,2692.00
2023-05-12T06:37:37.218Z,2755.00
2023-05-12T06:38:37.239Z,2782.00
2023-05-12T06:39:38.309Z,2805.00
2023-05-12T06:40:38.292Z,2816.00
2023-05-12T06:41:37.301Z,2841.00
2023-05-12T06:42:38.298Z,2915.00
2023-05-12T06:43:38.311Z,2927.00
2023-05-12T06:44:40.591Z,2942.00
2023-05-12T06:45:38.375Z,2961.00
2023-05-12T06:46:38.383Z,2983.00
2023-05-12T06:47:37.321Z,3042.00
2023-05-12T06:48:37.289Z,3079.00
2023-05-12T06:49:38.288Z,3102.00
2023-05-12T06:50:37.277Z,3217.00
2023-05-12T06:51:38.318Z,3032.00
2023-05-12T06:52:37.274Z,3115.00
2023-05-12T06:53:37.266Z,2934.00
2023-05-12T06:54:38.243Z,2538.00
2023-05-12T06:55:38.298Z,2094.00
2023-05-12T06:56:38.655Z,1869.00
2023-05-12T06:57:37.236Z,1828.00
2023-05-12T06:58:37.221Z,2214.00
2023-05-12T06:59:37.217Z,2350.00
2023-05-12T07:00:38.234Z,2310.00
2023-05-12T07:01:38.334Z,2226.00
2023-05-12T07:02:38.252Z,2192.00
2023-05-12T07:03:37.210Z,2161.00
2023-05-12T07:04:38.197Z,2146.00
2023-05-12T07:05:38.218Z,2010.00
2023-05-12T07:06:37.171Z,1134.00
2023-05-12T07:07:38.151Z,949.00
2023-05-12T07:08:38.204Z,1036.00
2023-05-12T07:09:38.142Z,853.00
2023-05-12T07:10:38.135Z,861.00
2023-05-12T07:11:37.248Z,916.00
2023-05-12T07:12:37.280Z,736.00
2023-05-12T07:13:37.297Z,686.00
2023-05-12T07:14:38.353Z,739.00
2023-05-12T07:15:37.390Z,645.00
2023-05-12T07:16:37.577Z,701.00
2023-05-12T07:17:37.583Z,792.00
2023-05-12T07:18:38.677Z,961.00
2023-05-12T07:19:38.645Z,924.00
2023-05-12T07:20:37.687Z,883.00
2023-05-12T07:21:37.742Z,897.00
2023-05-12T07:22:39.216Z,997.00
2023-05-12T07:23:38.858Z,995.00
2023-05-12T07:24:38.912Z,999.00
2023-05-12T07:25:38.080Z,1002.00
2023-05-12T07:26:39.058Z,937.00
2023-05-12T07:27:39.130Z,886.00
2023-05-12T07:28:39.158Z,900.00
2023-05-12T07:29:39.219Z,809.00
2023-05-12T07:30:39.276Z,915.00
2023-05-12T07:31:39.387Z,909.00
2023-05-12T07:32:38.441Z,911.00
2023-05-12T07:33:39.433Z,909.00
2023-05-12T07:34:39.676Z,819.00
2023-05-12T07:35:38.553Z,587.00
2023-05-12T07:36:38.612Z,569.00
2023-05-12T07:37:39.649Z,678.00
2023-05-12T07:38:38.734Z,847.00
2023-05-12T07:39:38.801Z,865.00
2023-05-12T07:40:39.830Z,875.00
2023-05-12T07:41:38.924Z,890.00
2023-05-12T07:42:39.939Z,903.00
2023-05-12T07:43:40.161Z,939.00
2023-05-12T07:44:40.017Z,977.00
2023-05-12T07:45:39.736Z,1010.00
2023-05-12T07:46:39.243Z,1034.00
2023-05-12T07:47:39.052Z,1043.00
2023-05-12T07:48:40.315Z,1060.00
2023-05-12T07:49:40.038Z,1075.00
2023-05-12T07:50:40.038Z,1089.00
2023-05-12T07:51:40.168Z,1096.00
2023-05-12T07:52:40.077Z,1097.00
2023-05-12T07:53:39.131Z,1099.00
2023-05-12T07:54:39.146Z,1100.00
2023-05-12T07:55:39.174Z,1100.00
2023-05-12T07:56:40.225Z,1102.00
2023-05-12T07:57:40.288Z,1101.00
2023-05-12T07:58:39.298Z,1097.00
2023-05-12T07:59:39.399Z,1096.00
2023-05-12T08:00:39.388Z,1095.00
2023-05-12T08:01:40.487Z,1088.00
2023-05-12T08:02:40.589Z,1086.00
2023-05-12T08:03:39.611Z,1083.00
2023-05-12T08:04:39.621Z,1085.00
2023-05-12T08:05:40.651Z,1083.00
2023-05-12T08:06:40.701Z,1082.00
2023-05-12T08:07:41.156Z,1079.00
2023-05-12T08:08:40.841Z,1080.00
2023-05-12T08:09:40.876Z,1078.00
2023-05-12T08:10:40.979Z,1075.00
2023-05-12T08:11:41.143Z,1070.00
2023-05-12T08:12:41.068Z,1069.00
2023-05-12T08:13:41.128Z,1069.00
2023-05-12T08:14:40.209Z,1067.00
2023-05-12T08:15:41.294Z,1068.00
2023-05-12T08:16:41.355Z,1068.00
2023-05-12T08:17:41.396Z,1067.00
2023-05-12T08:18:40.455Z,1067.00
2023-05-12T08:19:41.930Z,1067.00
2023-05-12T08:20:41.565Z,1064.00
2023-05-12T08:21:40.660Z,1062.00
2023-05-12T08:22:41.700Z,1060.00
2023-05-12T08:23:40.760Z,1057.00
2023-05-12T08:24:40.800Z,1058.00
2023-05-12T08:25:41.862Z,1057.00
2023-05-12T08:26:40.951Z,1052.00
2023-05-12T08:27:41.979Z,1050.00
2023-05-12T08:28:41.034Z,1049.00
2023-05-12T08:29:41.120Z,1050.00
2023-05-12T08:30:41.157Z,1047.00
2023-05-12T08:31:41.636Z,1046.00
2023-05-12T08:32:41.289Z,1046.00
2023-05-12T08:33:42.334Z,1042.00
2023-05-12T08:34:42.377Z,1043.00
2023-05-12T08:35:42.451Z,1044.00
2023-05-12T08:36:41.479Z,1045.00
2023-05-12T08:37:42.546Z,1042.00
2023-05-12T08:38:41.606Z,1041.00
2023-05-12T08:39:41.670Z,1039.00
2023-05-12T08:40:41.717Z,1041.00
2023-05-12T08:41:42.234Z,1039.00
2023-05-12T08:42:42.808Z,1036.00
2023-05-12T08:43:41.820Z,1019.00
2023-05-12T08:44:42.819Z,988.00
2023-05-12T08:45:42.842Z,993.00
2023-05-12T08:46:43.321Z,1000.00
2023-05-12T08:47:42.990Z,974.00
2023-05-12T08:48:41.914Z,876.00
2023-05-12T08:49:41.938Z,909.00
2023-05-12T08:50:41.935Z,937.00
2023-05-12T08:51:42.942Z,1031.00
2023-05-12T08:52:41.964Z,864.00
2023-05-12T08:53:42.943Z,823.00
2023-05-12T08:54:52.305Z,732.00
2023-05-12T08:55:50.821Z,735.00
2023-05-12T08:57:42.180Z,742.00
2023-05-12T08:58:42.531Z,738.00
2023-05-12T08:59:42.937Z,726.00
2023-05-12T09:00:41.937Z,711.00
2023-05-12T09:01:41.895Z,710.00
2023-05-12T09:02:52.276Z,705.00
2023-05-12T09:03:42.931Z,695.00
2023-05-12T09:04:42.949Z,696.00
2023-05-12T09:05:43.080Z,693.00
2023-05-12T09:06:42.857Z,686.00
2023-05-12T09:07:42.854Z,681.00
2023-05-12T09:08:42.834Z,642.00
2023-05-12T09:09:41.837Z,627.00
2023-05-12T09:10:41.834Z,615.00
2023-05-12T09:11:41.822Z,552.00
2023-05-12T09:12:41.815Z,565.00
2023-05-12T09:13:42.837Z,560.00
2023-05-12T09:14:42.797Z,536.00
2023-05-12T09:15:42.807Z,536.00
2023-05-12T09:16:42.887Z,531.00
2023-05-12T09:17:42.871Z,530.00
2023-05-12T09:18:41.825Z,529.00
2023-05-12T09:19:42.837Z,526.00
2023-05-12T09:20:41.769Z,518.00
2023-05-12T09:21:42.767Z,511.00
2023-05-12T09:22:41.728Z,507.00
2023-05-12T09:23:42.735Z,500.00
2023-05-12T09:24:41.783Z,499.00
2023-05-12T09:25:41.807Z,494.00
2023-05-12T09:26:42.859Z,491.00
2023-05-12T09:27:42.872Z,488.00
2023-05-12T09:28:42.916Z,487.00
2023-05-12T09:29:57.992Z,485.00
2023-05-12T09:30:42.989Z,484.00
2023-05-12T09:31:42.967Z,484.00
2023-05-12T09:32:42.935Z,485.00
2023-05-12T09:33:41.911Z,484.00
2023-05-12T09:34:42.898Z,481.00
2023-05-12T09:35:43.016Z,480.00
2023-05-12T09:36:41.895Z,478.00
2023-05-12T09:37:42.894Z,478.00
2023-05-12T09:38:42.880Z,479.00
2023-05-12T09:39:41.875Z,477.00
2023-05-12T09:40:41.858Z,477.00
2023-05-12T09:41:41.860Z,478.00
2023-05-12T09:42:42.861Z,478.00
2023-05-12T09:43:42.852Z,478.00
2023-05-12T09:44:41.840Z,482.00
2023-05-12T09:45:41.897Z,480.00
2023-05-12T09:46:42.833Z,479.00
2023-05-12T09:47:43.232Z,476.00
2023-05-12T09:48:42.824Z,477.00
2023-05-12T09:49:42.791Z,492.00
2023-05-12T09:50:47.374Z,581.00
2023-05-12T09:51:42.905Z,610.00
2023-05-12T09:52:43.214Z,738.00
2023-05-12T09:53:41.775Z,759.00
2023-05-12T09:54:42.748Z,855.00
2023-05-12T09:55:41.748Z,874.00
2023-05-12T09:56:42.736Z,901.00
2023-05-12T09:57:42.737Z,930.00
2023-05-12T09:58:41.722Z,956.00
2023-05-12T09:59:43.915Z,992.00
2023-05-12T10:01:41.722Z,1046.00
2023-05-12T10:02:42.758Z,1069.00
2023-05-12T10:03:41.687Z,1083.00
2023-05-12T10:04:42.709Z,1110.00
2023-05-12T10:05:41.658Z,1146.00
2023-05-12T10:06:42.670Z,1163.00
2023-05-12T10:07:42.728Z,1178.00
2023-05-12T10:08:42.638Z,1210.00
2023-05-12T10:09:41.643Z,1251.00
2023-05-12T10:10:42.633Z,1270.00
2023-05-12T10:11:42.615Z,1289.00
2023-05-12T10:12:42.616Z,1304.00
2023-05-12T10:13:41.610Z,1321.00
2023-05-12T10:14:41.603Z,1341.00
2023-05-12T10:15:42.590Z,1356.00
2023-05-12T10:16:42.615Z,1381.00
2023-05-12T10:17:42.643Z,1417.00
2023-05-12T10:18:42.585Z,1432.00
2023-05-12T10:19:42.558Z,1441.00
2023-05-12T10:20:41.577Z,1454.00
2023-05-12T10:21:41.570Z,1472.00
2023-05-12T10:22:42.551Z,1490.00
2023-05-12T10:23:42.558Z,1503.00
2023-05-12T10:24:42.531Z,1610.00
2023-05-12T10:25:42.536Z,1609.00
2023-05-12T10:26:42.556Z,1628.00
2023-05-12T10:27:42.523Z,1710.00
2023-05-12T10:28:42.516Z,1733.00
2023-05-12T10:29:42.495Z,1748.00
2023-05-12T10:30:41.494Z,1767.00
2023-05-12T10:31:42.530Z,1811.00
2023-05-12T10:32:42.534Z,1908.00
2023-05-12T10:33:42.557Z,1915.00
2023-05-12T10:34:42.567Z,1937.00
2023-05-12T10:35:41.590Z,1985.00
2023-05-12T10:36:42.624Z,2026.00
2023-05-12T10:37:42.752Z,2065.00
2023-05-12T10:38:42.700Z,2159.00
2023-05-12T10:39:41.759Z,2167.00
2023-05-12T10:40:41.776Z,2189.00
2023-05-12T10:41:42.828Z,2277.00
2023-05-12T10:42:42.220Z,2278.00
2023-05-12T10:43:42.871Z,2392.00
2023-05-12T10:44:42.971Z,2354.00
2023-05-12T10:45:42.943Z,2354.00
2023-05-12T10:46:43.022Z,2346.00
2023-05-12T10:47:43.221Z,2341.00
2023-05-12T10:48:43.092Z,2327.00
2023-05-12T10:49:43.116Z,2315.00
2023-05-12T10:50:43.118Z,2303.00
2023-05-12T10:51:43.167Z,2297.00
2023-05-12T10:52:43.118Z,2294.00
2023-05-12T10:53:50.208Z,2294.00
2023-05-12T10:54:43.104Z,2292.00
2023-05-12T10:55:43.791Z,2289.00
2023-05-12T10:56:42.607Z,2287.00
2023-05-12T10:57:43.549Z,2280.00
2023-05-12T10:58:42.316Z,2271.00
2023-05-12T10:59:43.361Z,2268.00
2023-05-12T11:00:43.833Z,2265.00
2023-05-12T11:01:42.874Z,2264.00
2023-05-12T11:02:43.284Z,2261.00
2023-05-12T11:03:43.737Z,2261.00
2023-05-12T11:04:44.688Z,2261.00
2023-05-12T11:05:42.504Z,2260.00
2023-05-12T11:06:43.112Z,2254.00
2023-05-12T11:07:42.455Z,2248.00
2023-05-12T11:08:44.122Z,2248.00
2023-05-12T11:09:50.690Z,2249.00
2023-05-12T11:10:43.187Z,2247.00
2023-05-12T11:11:43.454Z,2246.00
2023-05-12T11:12:43.149Z,2247.00
2023-05-12T11:13:43.113Z,2243.00
2023-05-12T11:14:43.099Z,2237.00
2023-05-12T11:15:43.087Z,2233.00
2023-05-12T11:16:43.117Z,2232.00
2023-05-12T11:17:43.158Z,2231.00
2023-05-12T11:18:43.185Z,2229.00
2023-05-12T11:19:42.069Z,2225.00
2023-05-12T11:20:43.069Z,2224.00
2023-05-12T11:21:43.075Z,2217.00
2023-05-12T11:22:43.048Z,2214.00
2023-05-12T11:23:43.046Z,2212.00
2023-05-12T11:24:43.034Z,2213.00
2023-05-12T11:25:44.384Z,2211.00
2023-05-12T11:26:43.023Z,2210.00
2023-05-12T11:27:43.121Z,2205.00
2023-05-12T11:28:42.138Z,2201.00
2023-05-12T11:29:43.152Z,2197.00
2023-05-12T11:30:43.177Z,2194.00
2023-05-12T11:31:43.257Z,2188.00
2023-05-12T11:32:42.346Z,2183.00
2023-05-12T11:33:43.463Z,2180.00
2023-05-12T11:34:43.372Z,2178.00
2023-05-12T11:35:43.427Z,2171.00
2023-05-12T11:36:42.474Z,2165.00
2023-05-12T11:37:43.555Z,2170.00
2023-05-12T11:38:43.590Z,2162.00
2023-05-12T11:39:42.613Z,2166.00
2023-05-12T11:40:42.673Z,2159.00
2023-05-12T11:41:42.715Z,2100.00
2023-05-12T11:42:43.739Z,2070.00
2023-05-12T11:43:42.938Z,2080.00
2023-05-12T11:44:42.808Z,2085.00
2023-05-12T11:45:43.866Z,2094.00
2023-05-12T11:46:43.897Z,2092.00
2023-05-12T11:47:42.972Z,2090.00
2023-05-12T11:48:44.001Z,2099.00
2023-05-12T11:49:44.016Z,2106.00
2023-05-12T11:50:44.053Z,2101.00
2023-05-12T11:51:44.118Z,2089.00
2023-05-12T11:52:44.139Z,2074.00
2023-05-12T11:53:44.227Z,2066.00
2023-05-12T11:54:44.242Z,2067.00
2023-05-12T11:55:44.284Z,2063.00
2023-05-12T11:56:43.320Z,2067.00
2023-05-12T11:57:43.381Z,2060.00
2023-05-12T11:58:43.442Z,2061.00
2023-05-12T11:59:44.499Z,2056.00
2023-05-12T12:00:44.541Z,2062.00
2023-05-12T12:01:43.590Z,2069.00
2023-05-12T12:02:44.696Z,2106.00
2023-05-12T12:03:43.764Z,2074.00
2023-05-12T12:04:44.772Z,2058.00
2023-05-12T12:05:43.863Z,2040.00
2023-05-12T12:06:43.837Z,2032.00
2023-05-12T12:07:44.909Z,2021.00
2023-05-12T12:08:43.937Z,2009.00
2023-05-12T12:09:44.994Z,1998.00
2023-05-12T12:10:44.050Z,1987.00
2023-05-12T12:11:45.093Z,1988.00
2023-05-12T12:12:45.152Z,1992.00
2023-05-12T12:13:45.180Z,2000.00
2023-05-12T12:14:47.271Z,2002.00
2023-05-12T12:15:45.223Z,2001.00
2023-05-12T12:16:44.216Z,1999.00
2023-05-12T12:17:44.237Z,1998.00
2023-05-12T12:18:45.240Z,1995.00
2023-05-12T12:19:45.214Z,1993.00
2023-05-12T12:20:45.172Z,1995.00
2023-05-12T12:21:44.171Z,1993.00
2023-05-12T12:22:44.156Z,1999.00
2023-05-12T12:23:50.992Z,2003.00
2023-05-12T12:24:45.171Z,2006.00
2023-05-12T12:25:44.189Z,1999.00
2023-05-12T12:26:45.142Z,2001.00
2023-05-12T12:27:44.152Z,2007.00
2023-05-12T12:28:45.116Z,1986.00
2023-05-12T12:29:45.102Z,1971.00
2023-05-12T12:30:44.182Z,1961.00
2023-05-12T12:31:44.356Z,1968.00
2023-05-12T12:32:45.158Z,1965.00
2023-05-12T12:33:45.095Z,1970.00
2023-05-12T12:34:45.092Z,1982.00
2023-05-12T12:35:45.088Z,1977.00
2023-05-12T12:36:44.095Z,1969.00
2023-05-12T12:37:45.054Z,1957.00
2023-05-12T12:38:44.103Z,1940.00
2023-05-12T12:39:44.160Z,1925.00
2023-05-12T12:40:44.215Z,1924.00
2023-05-12T12:41:45.228Z,1922.00
2023-05-12T12:42:44.275Z,1926.00
2023-05-12T12:43:45.335Z,1925.00
2023-05-12T12:44:44.380Z,1921.00
2023-05-12T12:45:44.438Z,1918.00
2023-05-12T12:46:45.554Z,1916.00
2023-05-12T12:47:44.584Z,1915.00
2023-05-12T12:48:45.613Z,1914.00
2023-05-12T12:49:44.659Z,1905.00
2023-05-12T12:50:44.706Z,1896.00
2023-05-12T12:51:47.107Z,1893.00
2023-05-12T12:52:45.914Z,1893.00
2023-05-12T12:53:45.957Z,1887.00
2023-05-12T12:54:45.005Z,1884.00
2023-05-12T12:55:46.069Z,1708.00
2023-05-12T12:56:45.134Z,956.00
2023-05-12T12:57:45.125Z,814.00
2023-05-12T12:58:46.151Z,805.00
2023-05-12T12:59:46.218Z,912.00
2023-05-12T13:00:45.289Z,968.00
2023-05-12T13:01:46.335Z,993.00
2023-05-12T13:02:45.498Z,1009.00
2023-05-12T13:03:45.373Z,1014.00
2023-05-12T13:04:45.391Z,1023.00
2023-05-12T13:05:45.395Z,1026.00
2023-05-12T13:06:46.392Z,1028.00
2023-05-12T13:07:46.381Z,1034.00
2023-05-12T13:08:46.405Z,1042.00
2023-05-12T13:09:45.412Z,1048.00
2023-05-12T13:10:45.494Z,1053.00
2023-05-12T13:11:46.508Z,1055.00
2023-05-12T13:12:46.574Z,1052.00
2023-05-12T13:13:46.645Z,1051.00
2023-05-12T13:14:46.705Z,1051.00
2023-05-12T13:15:45.764Z,1052.00
2023-05-12T13:16:46.860Z,1053.00
2023-05-12T13:17:46.958Z,1053.00
2023-05-12T13:18:47.011Z,1052.00
2023-05-12T13:19:47.001Z,1055.00
2023-05-12T13:20:46.050Z,1057.00
2023-05-12T13:21:46.097Z,1055.00
2023-05-12T13:22:46.188Z,1057.00
2023-05-12T13:23:46.228Z,1056.00
2023-05-12T13:24:46.302Z,1056.00
2023-05-12T13:25:46.333Z,1055.00
2023-05-12T13:26:47.393Z,1054.00
2023-05-12T13:27:46.482Z,1049.00
2023-05-12T13:28:46.548Z,1048.00
2023-05-12T13:29:47.570Z,1050.00
2023-05-12T13:30:46.697Z,1049.00
2023-05-12T13:31:46.712Z,1051.00
2023-05-12T13:32:46.802Z,1050.00
2023-05-12T13:33:46.851Z,1052.00
2023-05-12T13:34:47.864Z,1048.00
2023-05-12T13:35:46.934Z,1048.00
2023-05-12T13:36:47.976Z,1046.00
2023-05-12T13:37:47.029Z,1050.00
2023-05-12T13:38:47.084Z,1048.00
2023-05-12T13:39:47.134Z,1050.00
2023-05-12T13:40:47.188Z,1049.00
2023-05-12T13:41:48.252Z,1048.00
2023-05-12T13:42:48.310Z,1044.00
2023-05-12T13:43:48.359Z,1043.00
2023-05-12T13:44:47.430Z,1042.00
2023-05-12T13:45:48.473Z,1042.00
2023-05-12T13:46:47.612Z,1041.00
2023-05-12T13:47:48.646Z,1046.00
2023-05-12T13:48:48.652Z,1048.00
2023-05-12T13:49:47.772Z,1046.00
2023-05-12T13:50:48.781Z,1048.00
2023-05-12T13:51:47.828Z,1049.00
2023-05-12T13:52:48.889Z,1047.00
2023-05-12T13:53:47.965Z,1048.00
2023-05-12T13:54:49.080Z,1049.00
2023-05-12T13:55:48.064Z,1048.00
2023-05-12T13:56:49.171Z,1047.00
2023-05-12T13:57:48.231Z,1046.00
2023-05-12T13:58:48.260Z,1046.00
2023-05-12T13:59:48.333Z,1044.00
2023-05-12T14:00:49.393Z,1043.00
2023-05-12T14:01:49.566Z,1043.00
2023-05-12T14:02:48.601Z,1046.00
2023-05-12T14:03:49.603Z,1043.00
2023-05-12T14:04:48.645Z,1042.00
2023-05-12T14:05:49.701Z,1039.00
2023-05-12T14:06:48.730Z,1036.00
2023-05-12T14:07:49.813Z,1035.00
2023-05-12T14:08:48.842Z,1035.00
2023-05-12T14:09:48.908Z,1031.00
2023-05-12T14:10:48.956Z,1030.00
2023-05-12T14:11:49.022Z,1028.00
2023-05-12T14:12:49.103Z,1025.00
2023-05-12T14:13:49.145Z,1025.00
2023-05-12T14:14:50.291Z,1027.00
2023-05-12T14:15:50.294Z,1026.00
2023-05-12T14:16:50.488Z,1027.00
2023-05-12T14:17:49.404Z,1027.00
2023-05-12T14:18:50.458Z,1024.00
2023-05-12T14:19:50.480Z,1023.00
2023-05-12T14:20:49.532Z,1019.00
2023-05-12T14:21:50.675Z,1019.00
2023-05-12T14:22:49.649Z,1019.00
2023-05-12T14:23:51.224Z,1018.00
2023-05-12T14:24:49.792Z,1016.00
2023-05-12T14:25:50.880Z,1016.00
2023-05-12T14:26:50.963Z,1016.00
2023-05-12T14:27:50.133Z,1009.00
2023-05-12T14:28:50.129Z,1010.00
2023-05-12T14:29:51.120Z,1011.00
2023-05-12T14:30:51.118Z,1009.00
2023-05-12T14:31:51.235Z,1009.00
2023-05-12T14:32:51.270Z,1013.00
2023-05-12T14:33:51.271Z,1015.00
2023-05-12T14:34:51.340Z,1012.00
2023-05-12T14:36:03.113Z,1011.00
2023-05-12T14:36:51.392Z,1014.00
2023-05-12T14:37:51.504Z,1013.00
2023-05-12T14:38:51.371Z,1013.00
2023-05-12T14:39:51.355Z,1013.00
2023-05-12T14:40:51.363Z,1014.00
2023-05-12T14:41:50.337Z,1011.00
2023-05-12T14:42:51.350Z,1008.00
2023-05-12T14:43:51.340Z,1007.00
2023-05-12T14:44:50.336Z,1007.00
2023-05-12T14:45:51.370Z,1006.00
2023-05-12T14:46:50.315Z,1000.00
2023-05-12T14:47:50.317Z,1001.00
2023-05-12T14:48:51.293Z,1000.00
2023-05-12T14:49:51.302Z,999.00
2023-05-12T14:50:51.276Z,1002.00
2023-05-12T14:51:51.276Z,1001.00
2023-05-12T14:52:50.268Z,998.00
2023-05-12T14:53:51.289Z,997.00
2023-05-12T14:54:51.276Z,998.00
2023-05-12T14:55:51.255Z,998.00
2023-05-12T14:56:51.234Z,1000.00
2023-05-12T14:57:51.224Z,999.00
2023-05-12T14:58:51.233Z,999.00
2023-05-12T14:59:51.205Z,997.00
2023-05-12T15:00:50.289Z,999.00
2023-05-12T15:01:51.316Z,998.00
2023-05-12T15:02:50.552Z,997.00
2023-05-12T15:03:50.412Z,998.00
2023-05-12T15:04:51.478Z,995.00
2023-05-12T15:06:04.792Z,994.00
2023-05-12T15:06:51.511Z,995.00
2023-05-12T15:07:50.535Z,992.00
2023-05-12T15:08:50.497Z,992.00
2023-05-12T15:09:50.526Z,990.00
2023-05-12T15:10:51.467Z,987.00
2023-05-12T15:11:50.457Z,988.00
2023-05-12T15:12:51.473Z,990.00
2023-05-12T15:13:51.474Z,990.00
2023-05-12T15:14:51.458Z,992.00
2023-05-12T15:15:52.959Z,988.00
2023-05-12T15:16:50.472Z,985.00
2023-05-12T15:17:51.491Z,985.00
2023-05-12T15:18:51.445Z,985.00
2023-05-12T15:19:50.430Z,986.00
2023-05-12T15:20:50.427Z,987.00
2023-05-12T15:21:51.394Z,985.00
2023-05-12T15:22:50.390Z,986.00
2023-05-12T15:23:51.400Z,985.00
2023-05-12T15:24:50.363Z,986.00
2023-05-12T15:25:50.465Z,984.00
2023-05-12T15:26:51.401Z,983.00
2023-05-12T15:27:51.459Z,979.00
2023-05-12T15:28:51.486Z,975.00
2023-05-12T15:29:51.588Z,974.00
2023-05-12T15:32:09.781Z,966.00
2023-05-12T15:33:10.913Z,970.00
2023-05-12T15:35:29.066Z,971.00
2023-05-12T15:38:25.364Z,964.00
2023-05-12T15:46:20.395Z,961.00
2023-05-12T15:48:39.802Z,958.00
2023-05-12T15:49:40.431Z,953.00
2023-05-12T15:50:40.426Z,953.00
2023-05-12T15:51:40.423Z,952.00
2023-05-12T15:52:40.407Z,953.00
2023-05-12T15:53:39.392Z,953.00
2023-05-12T15:54:40.395Z,956.00
2023-05-12T15:55:39.426Z,958.00
2023-05-12T15:56:40.379Z,959.00
2023-05-12T15:57:39.366Z,959.00
2023-05-12T15:58:39.399Z,959.00
2023-05-12T15:59:39.352Z,956.00
2023-05-12T16:00:39.403Z,952.00
2023-05-12T16:02:58.794Z,944.00
2023-05-12T16:14:22.952Z,946.00
2023-05-12T16:21:23.698Z,929.00
2023-05-12T16:23:42.886Z,924.00
2023-05-12T16:31:07.164Z,928.00
2023-05-12T16:33:26.096Z,924.00
2023-05-12T16:34:26.161Z,917.00
2023-05-12T16:36:45.448Z,913.00
2023-05-12T16:37:46.229Z,916.00
2023-05-12T16:38:45.199Z,919.00
2023-05-12T16:39:46.189Z,922.00
2023-05-12T16:40:46.179Z,923.00
2023-05-12T16:41:45.222Z,920.00
2023-05-12T16:42:45.166Z,920.00
2023-05-12T16:45:04.359Z,924.00
2023-05-12T16:47:23.472Z,918.00
2023-05-12T16:48:38.339Z,922.00
2023-05-12T16:49:23.380Z,925.00
2023-05-12T16:54:25.648Z,913.00
2023-05-12T16:56:59.583Z,911.00
2023-05-12T17:05:07.133Z,913.00
2023-05-12T17:06:08.081Z,912.00
2023-05-12T17:07:07.095Z,910.00
2023-05-12T17:08:08.187Z,908.00
2023-05-12T17:10:26.301Z,911.00
2023-05-12T17:16:51.040Z,908.00
2023-05-12T17:25:03.816Z,901.00
2023-05-12T17:32:17.172Z,888.00
2023-05-12T17:33:17.185Z,886.00
2023-05-12T17:35:36.331Z,882.00
2023-05-12T17:37:55.771Z,873.00
2023-05-12T17:40:14.538Z,882.00
2023-05-12T17:44:45.537Z,891.00
2023-05-12T17:51:30.599Z,875.00
2023-05-12T17:52:31.556Z,875.00
2023-05-12T17:53:30.633Z,874.00
2023-05-12T17:54:30.634Z,872.00
2023-05-12T18:01:18.648Z,870.00
2023-05-12T18:02:19.671Z,870.00
2023-05-12T18:03:19.584Z,869.00
2023-05-12T18:04:19.610Z,865.00
2023-05-12T18:05:18.927Z,864.00
2023-05-12T18:07:37.892Z,860.00
2023-05-12T18:09:57.002Z,857.00
2023-05-12T18:10:58.008Z,857.00
2023-05-12T18:11:57.118Z,859.00
2023-05-12T18:12:57.974Z,858.00
2023-05-12T18:13:57.906Z,859.00
2023-05-12T18:14:56.907Z,861.00
2023-05-12T18:15:57.894Z,863.00
2023-05-12T18:16:57.942Z,863.00
2023-05-12T18:17:57.962Z,862.00
2023-05-12T18:18:57.080Z,863.00
2023-05-12T18:21:16.021Z,851.00
2023-05-12T18:23:35.136Z,851.00
2023-05-12T18:24:35.074Z,855.00
2023-05-12T18:25:35.094Z,859.00
2023-05-12T18:26:36.059Z,860.00
2023-05-12T18:27:36.034Z,858.00
2023-05-12T18:28:35.060Z,856.00
2023-05-12T18:29:36.024Z,855.00
2023-05-12T18:31:54.233Z,830.00
2023-05-12T18:40:54.277Z,844.00
2023-05-12T18:50:19.945Z,837.00
2023-05-12T18:52:38.884Z,832.00
2023-05-12T18:54:57.968Z,841.00
2023-05-12T18:55:59.029Z,840.00
2023-05-12T18:56:58.997Z,838.00
2023-05-12T19:02:06.580Z,825.00
2023-05-12T19:04:25.695Z,817.00
2023-05-12T19:07:34.073Z,821.00
2023-05-12T20:22:15.198Z,793.00
2023-05-12T20:24:34.462Z,793.00
2023-05-12T20:27:30.243Z,789.00
2023-05-12T20:29:55.403Z,786.00
2023-05-12T20:30:56.469Z,788.00
2023-05-12T20:31:56.480Z,789.00
2023-05-12T20:32:55.526Z,787.00
2023-05-12T20:34:11.002Z,787.00
2023-05-12T20:34:56.503Z,786.00
2023-05-12T22:08:58.297Z,763.00
2023-05-12T22:09:58.032Z,764.00
2023-05-12T22:12:17.220Z,750.00
2023-05-12T22:13:18.153Z,756.00
2023-05-12T22:14:17.110Z,761.00
2023-05-12T22:15:17.127Z,761.00
2023-05-12T22:17:36.398Z,747.00
2023-05-12T22:18:37.259Z,752.00
2023-05-12T22:19:36.220Z,753.00
2023-05-12T22:20:36.196Z,754.00
2023-05-12T22:21:36.198Z,754.00
2023-05-12T22:22:37.185Z,756.00
2023-05-12T22:23:36.158Z,752.00